createdAt,value
2023-03-29T00:02:30.736Z,7.20
2023-03-29T00:05:04.327Z,7.20
2023-03-29T00:07:35.760Z,7.30
2023-03-29T00:10:10.106Z,7.30
2023-03-29T00:12:42.410Z,7.30
2023-03-29T00:15:14.487Z,7.30
2023-03-29T00:17:46.281Z,7.50
2023-03-29T00:20:18.378Z,7.50
2023-03-29T00:22:49.860Z,7.80
2023-03-29T00:25:21.381Z,8.00
2023-03-29T00:27:53.168Z,8.00
2023-03-29T00:30:24.639Z,8.00
2023-03-29T00:32:56.218Z,7.90
2023-03-29T00:35:27.760Z,7.80
2023-03-29T00:37:59.269Z,7.70
2023-03-29T00:40:30.730Z,7.60
2023-03-29T00:43:02.296Z,7.50
2023-03-29T00:45:35.906Z,7.40
2023-03-29T00:48:10.319Z,7.30
2023-03-29T00:50:44.437Z,7.30
2023-03-29T00:53:18.924Z,7.30
2023-03-29T00:55:53.227Z,7.20
2023-03-29T00:58:28.114Z,7.20
2023-03-29T01:01:02.706Z,7.20
2023-03-29T01:03:37.969Z,7.20
2023-03-29T01:06:12.042Z,7.20
2023-03-29T01:08:45.977Z,7.30
2023-03-29T01:11:22.349Z,7.30
2023-03-29T01:13:57.373Z,7.30
2023-03-29T01:16:31.362Z,7.30
2023-03-29T01:19:03.272Z,7.40
2023-03-29T01:21:39.768Z,7.50
2023-03-29T01:24:42.103Z,7.50
2023-03-29T01:27:18.965Z,7.50
2023-03-29T01:29:54.251Z,7.50
2023-03-29T01:32:30.576Z,7.60
2023-03-29T01:35:06.747Z,7.60
2023-03-29T01:37:41.176Z,7.70
2023-03-29T01:40:14.028Z,7.60
2023-03-29T01:42:48.661Z,7.60
2023-03-29T01:45:25.855Z,7.60
2023-03-29T01:48:01.017Z,7.50
2023-03-29T01:50:39.309Z,7.50
2023-03-29T01:53:13.890Z,7.30
2023-03-29T01:55:48.562Z,7.30
2023-03-29T01:58:22.388Z,7.30
2023-03-29T02:00:55.799Z,7.30
2023-03-29T02:03:31.486Z,7.30
2023-03-29T02:06:05.751Z,7.20
2023-03-29T02:08:38.461Z,7.20
2023-03-29T02:11:10.124Z,7.20
2023-03-29T02:13:42.206Z,7.10
2023-03-29T02:16:14.827Z,7.10
2023-03-29T02:18:49.233Z,7.00
2023-03-29T02:21:24.641Z,7.00
2023-03-29T02:23:59.130Z,7.00
2023-03-29T02:26:30.742Z,7.00
2023-03-29T02:29:02.388Z,7.00
2023-03-29T02:31:37.783Z,7.00
2023-03-29T02:34:13.931Z,7.00
2023-03-29T02:37:06.835Z,6.90
2023-03-29T02:39:41.308Z,6.90
2023-03-29T02:42:14.876Z,6.80
2023-03-29T02:44:48.118Z,6.80
2023-03-29T02:47:22.563Z,6.80
2023-03-29T02:49:54.105Z,6.90
2023-03-29T02:52:28.506Z,6.90
2023-03-29T02:55:02.822Z,7.00
2023-03-29T02:57:35.793Z,7.00
2023-03-29T03:00:10.451Z,7.10
2023-03-29T03:02:43.204Z,7.10
2023-03-29T03:05:14.861Z,7.10
2023-03-29T03:07:46.288Z,7.10
2023-03-29T03:10:19.268Z,7.10
2023-03-29T03:12:50.913Z,7.00
2023-03-29T03:15:22.521Z,7.00
2023-03-29T03:17:54.668Z,7.00
2023-03-29T03:20:26.609Z,7.00
2023-03-29T03:22:58.386Z,7.00
2023-03-29T03:25:31.754Z,7.00
2023-03-29T03:28:03.533Z,7.00
2023-03-29T03:30:35.012Z,7.00
2023-03-29T03:33:06.727Z,7.00
2023-03-29T03:35:39.320Z,7.00
2023-03-29T03:38:11.338Z,7.00
2023-03-29T03:40:43.515Z,7.00
2023-03-29T03:43:15.344Z,7.00
2023-03-29T03:45:47.086Z,7.00
2023-03-29T03:48:18.906Z,7.00
2023-03-29T03:50:52.732Z,7.00
2023-03-29T03:53:26.098Z,7.00
2023-03-29T03:55:57.997Z,7.00
2023-03-29T03:58:29.382Z,7.00
2023-03-29T04:01:02.038Z,7.00
2023-03-29T04:03:33.922Z,7.00
2023-03-29T04:06:07.774Z,6.90
2023-03-29T04:08:39.471Z,7.00
2023-03-29T04:11:11.236Z,7.00
2023-03-29T04:13:42.643Z,7.00
2023-03-29T04:16:14.178Z,7.00
2023-03-29T04:18:46.065Z,7.00
2023-03-29T04:21:19.970Z,7.00
2023-03-29T04:23:50.887Z,7.00
2023-03-29T04:26:23.110Z,7.00
2023-03-29T04:28:54.566Z,7.00
2023-03-29T04:31:26.686Z,7.00
2023-03-29T04:34:00.387Z,6.90
2023-03-29T04:36:32.271Z,7.00
2023-03-29T04:39:04.609Z,7.00
2023-03-29T04:41:36.199Z,7.00
2023-03-29T04:44:08.411Z,7.00
2023-03-29T04:46:40.187Z,7.00
2023-03-29T04:49:12.877Z,7.00
2023-03-29T04:51:44.313Z,7.00
2023-03-29T04:54:15.856Z,7.00
2023-03-29T04:56:47.286Z,7.00
2023-03-29T04:59:18.732Z,7.00
2023-03-29T05:01:50.148Z,7.00
2023-03-29T05:04:21.664Z,6.90
2023-03-29T05:06:53.939Z,6.90
2023-03-29T05:09:26.693Z,6.90
2023-03-29T05:11:58.075Z,6.90
2023-03-29T05:14:29.562Z,6.90
2023-03-29T05:17:01.427Z,6.90
2023-03-29T05:19:33.686Z,6.90
2023-03-29T05:22:05.331Z,6.90
2023-03-29T05:24:37.467Z,6.90
2023-03-29T05:27:08.921Z,6.90
2023-03-29T05:29:40.379Z,6.80
2023-03-29T05:32:11.973Z,6.70
2023-03-29T05:34:43.905Z,6.60
2023-03-29T05:37:15.317Z,6.60
2023-03-29T05:39:46.975Z,6.60
2023-03-29T05:42:20.071Z,6.50
2023-03-29T05:44:53.415Z,6.50
2023-03-29T05:47:24.715Z,6.50
2023-03-29T05:49:57.504Z,6.40
2023-03-29T05:52:28.928Z,6.40
2023-03-29T05:55:00.592Z,6.40
2023-03-29T05:57:32.619Z,6.40
2023-03-29T06:00:06.612Z,6.50
2023-03-29T06:02:38.211Z,6.50
2023-03-29T06:05:10.713Z,6.50
2023-03-29T06:07:42.843Z,6.50
2023-03-29T06:10:14.408Z,6.60
2023-03-29T06:12:47.628Z,6.50
2023-03-29T06:15:19.924Z,6.60
2023-03-29T06:17:51.750Z,6.60
2023-03-29T06:20:23.373Z,6.60
2023-03-29T06:22:54.780Z,6.70
2023-03-29T06:25:26.415Z,6.70
2023-03-29T06:27:58.072Z,6.70
2023-03-29T06:30:29.942Z,6.80
2023-03-29T06:33:02.238Z,6.80
2023-03-29T06:35:34.743Z,6.90
2023-03-29T06:38:08.158Z,7.10
2023-03-29T06:40:40.066Z,7.10
2023-03-29T06:43:11.839Z,7.20
2023-03-29T06:45:54.314Z,7.20
2023-03-29T06:48:25.917Z,7.20
2023-03-29T06:50:57.430Z,7.30
2023-03-29T06:53:28.894Z,7.30
2023-03-29T06:56:01.080Z,7.30
2023-03-29T06:58:32.576Z,7.20
2023-03-29T07:01:05.532Z,7.30
2023-03-29T07:03:38.905Z,7.30
2023-03-29T07:06:11.587Z,7.50
2023-03-29T07:08:44.792Z,7.60
2023-03-29T07:11:19.004Z,7.60
2023-03-29T07:13:51.012Z,7.70
2023-03-29T07:16:22.903Z,7.80
2023-03-29T07:18:54.305Z,7.90
2023-03-29T07:21:26.974Z,8.00
2023-03-29T07:23:58.763Z,8.00
2023-03-29T07:26:30.566Z,8.10
2023-03-29T07:29:02.029Z,8.00
2023-03-29T07:31:35.245Z,7.80
2023-03-29T07:34:08.386Z,7.80
2023-03-29T07:36:39.884Z,7.80
2023-03-29T07:39:13.602Z,7.80
2023-03-29T07:41:45.200Z,7.80
2023-03-29T07:44:18.221Z,7.90
2023-03-29T07:46:49.736Z,8.20
2023-03-29T07:49:22.223Z,8.30
2023-03-29T07:51:55.109Z,8.40
2023-03-29T07:54:27.041Z,8.60
2023-03-29T07:56:58.596Z,8.60
2023-03-29T07:59:30.055Z,8.80
2023-03-29T08:02:01.919Z,8.80
2023-03-29T08:04:33.602Z,8.70
2023-03-29T08:07:05.885Z,8.70
2023-03-29T08:09:37.830Z,8.70
2023-03-29T08:12:09.469Z,8.70
2023-03-29T08:14:40.896Z,8.70
2023-03-29T08:17:12.615Z,8.70
2023-03-29T08:19:50.910Z,8.80
2023-03-29T08:22:18.074Z,8.70
2023-03-29T08:24:49.741Z,8.70
2023-03-29T08:27:21.344Z,8.80
2023-03-29T08:29:52.884Z,8.90
2023-03-29T08:32:24.517Z,8.90
2023-03-29T08:34:55.956Z,9.00
2023-03-29T08:37:27.553Z,8.90
2023-03-29T08:39:59.263Z,8.70
2023-03-29T08:42:45.528Z,8.80
2023-03-29T08:45:21.122Z,8.70
2023-03-29T08:47:57.347Z,8.80
2023-03-29T08:50:33.683Z,9.00
2023-03-29T08:53:08.537Z,9.20
2023-03-29T08:55:43.259Z,9.30
2023-03-29T08:58:17.866Z,9.60
2023-03-29T09:00:52.328Z,10.00
2023-03-29T09:03:27.317Z,10.00
2023-03-29T09:06:02.353Z,10.00
2023-03-29T09:08:35.758Z,10.10
2023-03-29T09:11:14.674Z,10.50
2023-03-29T09:14:08.636Z,10.80
2023-03-29T09:17:04.387Z,10.90
2023-03-29T09:19:40.492Z,11.10
2023-03-29T09:22:16.001Z,11.50
2023-03-29T09:24:56.348Z,12.00
2023-03-29T09:27:32.300Z,12.40
2023-03-29T09:30:19.453Z,12.60
2023-03-29T09:32:54.616Z,12.90
2023-03-29T09:35:28.998Z,13.10
2023-03-29T09:38:07.534Z,12.90
2023-03-29T09:40:43.277Z,13.00
2023-03-29T09:43:18.357Z,13.00
2023-03-29T09:45:53.058Z,13.10
2023-03-29T09:48:26.177Z,13.20
2023-03-29T09:50:57.882Z,13.10
2023-03-29T09:53:29.359Z,13.00
2023-03-29T09:56:02.971Z,13.00
2023-03-29T09:58:36.257Z,12.80
2023-03-29T10:01:10.310Z,12.80
2023-03-29T10:03:43.350Z,12.90
2023-03-29T10:06:21.128Z,12.80
2023-03-29T10:08:57.212Z,12.80
2023-03-29T10:11:34.818Z,12.70
2023-03-29T10:14:08.600Z,12.80
2023-03-29T10:16:41.844Z,12.70
2023-03-29T10:19:22.372Z,12.80
2023-03-29T10:21:55.099Z,12.60
2023-03-29T10:24:28.724Z,12.60
2023-03-29T10:27:03.014Z,12.60
2023-03-29T10:29:40.113Z,12.80
2023-03-29T10:32:21.151Z,12.60
2023-03-29T10:34:51.792Z,12.40
2023-03-29T10:37:23.837Z,12.80
2023-03-29T10:39:56.459Z,12.90
2023-03-29T10:42:29.330Z,13.10
2023-03-29T10:45:01.615Z,13.40
2023-03-29T10:47:34.932Z,13.50
2023-03-29T10:50:11.457Z,13.70
2023-03-29T10:52:43.257Z,13.60
2023-03-29T10:55:15.993Z,13.60
2023-03-29T10:57:53.159Z,13.30
2023-03-29T11:00:28.035Z,13.00
2023-03-29T11:06:15.234Z,12.90
2023-03-29T11:08:55.753Z,12.70
2023-03-29T11:11:43.551Z,12.40
2023-03-29T11:14:21.165Z,12.10
2023-03-29T11:16:58.479Z,11.80
2023-03-29T11:19:39.641Z,11.70
2023-03-29T11:22:14.952Z,11.60
2023-03-29T11:25:06.859Z,11.50
2023-03-29T11:27:41.996Z,11.50
2023-03-29T11:30:18.700Z,11.60
2023-03-29T11:32:55.512Z,11.60
2023-03-29T11:35:34.725Z,11.70
2023-03-29T11:38:11.400Z,11.80
2023-03-29T11:40:53.378Z,11.90
2023-03-29T11:43:29.499Z,11.60
2023-03-29T11:46:04.550Z,11.50
2023-03-29T11:48:39.157Z,11.60
2023-03-29T11:51:16.048Z,11.70
2023-03-29T11:53:56.987Z,11.90
2023-03-29T11:56:32.058Z,12.20
2023-03-29T11:59:08.110Z,12.40
2023-03-29T12:01:42.694Z,12.60
2023-03-29T12:04:19.874Z,12.80
2023-03-29T12:06:56.278Z,13.10
2023-03-29T12:09:32.530Z,13.40
2023-03-29T12:12:10.121Z,13.60
2023-03-29T12:14:50.480Z,13.70
2023-03-29T12:17:25.497Z,13.80
2023-03-29T12:20:05.786Z,13.80
2023-03-29T12:22:38.968Z,14.00
2023-03-29T12:25:14.702Z,14.10
2023-03-29T12:27:52.030Z,13.80
2023-03-29T12:30:34.329Z,13.40
2023-03-29T12:33:32.350Z,12.90
2023-03-29T12:36:18.007Z,12.80
2023-03-29T12:38:51.188Z,12.80
2023-03-29T12:41:25.178Z,13.00
2023-03-29T12:43:59.591Z,13.20
2023-03-29T12:46:33.808Z,13.30
2023-03-29T12:49:09.591Z,13.50
2023-03-29T12:51:44.153Z,13.60
2023-03-29T12:54:18.466Z,13.80
2023-03-29T12:57:00.638Z,14.00
2023-03-29T12:59:40.531Z,14.00
2023-03-29T13:05:34.524Z,14.20
2023-03-29T13:08:25.904Z,14.40
2023-03-29T13:10:58.654Z,14.50
2023-03-29T13:13:32.952Z,14.40
2023-03-29T13:16:17.578Z,14.50
2023-03-29T13:18:57.028Z,14.50
2023-03-29T13:21:34.521Z,14.40
2023-03-29T13:24:09.791Z,14.50
2023-03-29T13:26:51.090Z,14.30
2023-03-29T13:29:50.733Z,14.20
2023-03-29T13:32:50.352Z,14.20
2023-03-29T13:35:30.717Z,14.30
2023-03-29T13:38:07.904Z,14.30
2023-03-29T13:40:49.755Z,14.40
2023-03-29T13:43:25.281Z,14.40
2023-03-29T13:46:09.655Z,14.40
2023-03-29T13:48:53.746Z,14.40
2023-03-29T13:51:35.877Z,14.40
2023-03-29T13:54:20.030Z,14.50
2023-03-29T13:57:04.631Z,14.70
2023-03-29T13:59:41.721Z,14.60
2023-03-29T14:02:17.755Z,14.40
2023-03-29T14:04:51.924Z,14.40
2023-03-29T14:07:26.430Z,14.40
2023-03-29T14:10:01.318Z,14.30
2023-03-29T14:12:36.958Z,14.20
2023-03-29T14:15:22.728Z,14.10
2023-03-29T14:18:00.779Z,14.10
2023-03-29T14:20:34.082Z,14.10
2023-03-29T14:23:13.344Z,14.20
2023-03-29T14:25:45.894Z,14.10
2023-03-29T14:28:25.933Z,14.20
2023-03-29T14:30:57.833Z,14.10
2023-03-29T14:33:33.175Z,14.00
2023-03-29T14:36:07.557Z,14.00
2023-03-29T14:38:39.947Z,13.90
2023-03-29T14:41:11.601Z,13.80
2023-03-29T14:43:43.253Z,13.80
2023-03-29T14:46:17.780Z,13.60
2023-03-29T14:48:49.570Z,13.60
2023-03-29T14:51:23.258Z,13.70
2023-03-29T14:53:58.459Z,13.70
2023-03-29T14:56:30.318Z,13.80
2023-03-29T14:59:04.790Z,13.90
2023-03-29T15:01:40.683Z,14.00
2023-03-29T15:04:14.141Z,14.10
2023-03-29T15:06:46.843Z,14.00
2023-03-29T15:09:20.758Z,13.90
2023-03-29T15:11:59.507Z,13.90
2023-03-29T15:14:34.279Z,14.00
2023-03-29T15:17:08.915Z,13.90
2023-03-29T15:19:40.614Z,13.70
2023-03-29T15:22:12.438Z,13.70
2023-03-29T15:24:46.923Z,13.70
2023-03-29T15:27:20.954Z,13.70
2023-03-29T15:29:55.355Z,13.70
2023-03-29T15:32:29.430Z,13.70
2023-03-29T15:35:02.099Z,13.60
2023-03-29T15:37:33.492Z,13.50
2023-03-29T15:40:07.884Z,13.50
2023-03-29T15:42:39.312Z,13.50
2023-03-29T15:45:17.729Z,13.50
2023-03-29T15:47:49.363Z,13.40
2023-03-29T15:50:20.808Z,13.50
2023-03-29T15:52:56.339Z,13.50
2023-03-29T15:55:28.958Z,13.50
2023-03-29T15:58:03.510Z,13.60
2023-03-29T16:00:36.611Z,13.60
2023-03-29T16:03:11.064Z,13.50
2023-03-29T16:05:50.383Z,13.50
2023-03-29T16:08:21.818Z,13.40
2023-03-29T16:10:53.294Z,13.40
2023-03-29T16:13:24.687Z,13.40
2023-03-29T16:15:57.984Z,13.40
2023-03-29T16:18:29.800Z,13.40
2023-03-29T16:21:01.449Z,13.40
2023-03-29T16:23:32.883Z,13.40
2023-03-29T16:26:05.345Z,13.50
2023-03-29T16:28:37.684Z,13.50
2023-03-29T16:31:10.865Z,13.50
2023-03-29T16:33:42.843Z,13.50
2023-03-29T16:36:14.373Z,13.50
2023-03-29T16:38:45.940Z,13.40
2023-03-29T16:41:18.037Z,13.40
2023-03-29T16:43:49.600Z,13.40
2023-03-29T16:46:21.670Z,13.40
2023-03-29T16:48:53.616Z,13.30
2023-03-29T16:51:25.504Z,13.20
2023-03-29T16:53:57.489Z,13.20
2023-03-29T16:56:29.951Z,13.10
2023-03-29T16:59:01.386Z,13.10
2023-03-29T17:01:32.958Z,13.10
2023-03-29T17:04:04.877Z,13.00
2023-03-29T17:06:36.480Z,13.00
2023-03-29T17:09:07.954Z,13.00
2023-03-29T17:11:39.545Z,13.00
2023-03-29T17:14:11.375Z,13.00
2023-03-29T17:16:42.912Z,12.90
2023-03-29T17:19:14.361Z,13.00
2023-03-29T17:21:46.031Z,13.00
2023-03-29T17:24:17.492Z,12.90
2023-03-29T17:26:48.992Z,12.90
2023-03-29T17:29:20.585Z,12.90
2023-03-29T17:31:51.998Z,12.90
2023-03-29T17:34:24.336Z,12.80
2023-03-29T17:36:55.873Z,12.80
2023-03-29T17:39:27.752Z,12.80
2023-03-29T17:41:59.611Z,12.80
2023-03-29T17:44:33.477Z,12.70
2023-03-29T17:47:05.070Z,12.70
2023-03-29T17:49:36.539Z,12.70
2023-03-29T17:52:08.078Z,12.70
2023-03-29T17:54:41.658Z,12.70
2023-03-29T17:57:13.178Z,12.80
2023-03-29T17:59:44.904Z,12.70
2023-03-29T18:02:18.895Z,12.70
2023-03-29T18:04:51.708Z,12.70
2023-03-29T18:07:23.258Z,12.70
2023-03-29T18:09:54.873Z,12.70
2023-03-29T18:12:27.772Z,12.80
2023-03-29T18:14:59.524Z,12.70
2023-03-29T18:17:31.388Z,12.70
2023-03-29T18:20:04.533Z,12.70
2023-03-29T18:22:36.410Z,12.70
2023-03-29T18:25:10.153Z,12.60
2023-03-29T18:27:41.771Z,12.60
2023-03-29T18:30:16.612Z,12.70
2023-03-29T18:32:48.127Z,12.60
2023-03-29T18:35:19.656Z,12.60
2023-03-29T18:37:52.132Z,12.50
2023-03-29T18:40:24.941Z,12.50
2023-03-29T18:42:56.386Z,12.50
2023-03-29T18:45:27.935Z,12.50
2023-03-29T18:47:59.427Z,12.50
2023-03-29T18:50:31.820Z,12.50
2023-03-29T18:53:03.230Z,12.60
2023-03-29T18:55:34.708Z,12.60
2023-03-29T18:58:06.165Z,12.60
2023-03-29T19:00:38.646Z,12.70
2023-03-29T19:03:10.645Z,12.70
2023-03-29T19:05:42.442Z,12.60
2023-03-29T19:08:13.977Z,12.60
2023-03-29T19:10:45.550Z,12.70
2023-03-29T19:13:17.056Z,12.60
2023-03-29T19:15:48.620Z,12.70
2023-03-29T19:18:19.786Z,12.70
2023-03-29T19:20:51.574Z,12.70
2023-03-29T19:23:24.971Z,12.70
2023-03-29T19:25:57.322Z,12.70
2023-03-29T19:28:29.570Z,12.70
2023-03-29T19:31:03.316Z,12.60
2023-03-29T19:33:34.995Z,12.50
2023-03-29T19:36:07.390Z,12.40
2023-03-29T19:38:42.264Z,12.40
2023-03-29T19:41:13.702Z,12.30
2023-03-29T19:44:08.881Z,12.10
2023-03-29T19:46:40.510Z,12.00
2023-03-29T19:49:13.595Z,12.00
2023-03-29T19:51:45.540Z,11.80
2023-03-29T19:54:17.267Z,11.80
2023-03-29T19:56:50.689Z,11.80
2023-03-29T19:59:22.884Z,11.70
2023-03-29T20:01:56.046Z,11.70
2023-03-29T20:04:28.730Z,11.70
2023-03-29T20:07:00.410Z,11.60
2023-03-29T20:09:33.983Z,11.60
2023-03-29T20:12:05.977Z,11.60
2023-03-29T20:14:39.778Z,11.60
2023-03-29T20:17:13.315Z,11.60
2023-03-29T20:19:44.814Z,11.60
2023-03-29T20:22:16.294Z,11.50
2023-03-29T20:24:47.762Z,11.50
2023-03-29T20:27:19.696Z,11.50
2023-03-29T20:29:51.157Z,11.50
2023-03-29T20:32:22.586Z,11.50
2023-03-29T20:34:54.536Z,11.70
2023-03-29T20:37:26.110Z,12.00
2023-03-29T20:39:59.340Z,12.10
2023-03-29T20:42:32.480Z,12.20
2023-03-29T20:45:04.066Z,12.30
2023-03-29T20:47:37.743Z,12.20
2023-03-29T20:50:11.474Z,12.30
2023-03-29T20:52:43.055Z,12.40
2023-03-29T20:55:16.188Z,12.50
2023-03-29T20:57:47.875Z,12.60
2023-03-29T21:00:20.710Z,12.70
2023-03-29T21:02:54.513Z,12.70
2023-03-29T21:05:27.179Z,12.70
2023-03-29T21:07:58.866Z,12.60
2023-03-29T21:10:30.939Z,12.80
2023-03-29T21:13:02.911Z,12.90
2023-03-29T21:15:35.283Z,13.00
2023-03-29T21:18:07.660Z,13.00
2023-03-29T21:20:39.380Z,12.90
2023-03-29T21:23:10.793Z,13.00
2023-03-29T21:25:43.772Z,13.00
2023-03-29T21:28:15.206Z,13.10
2023-03-29T21:30:46.675Z,13.20
2023-03-29T21:33:18.087Z,13.20
2023-03-29T21:35:50.591Z,13.20
2023-03-29T21:38:22.037Z,13.20
2023-03-29T21:40:54.003Z,13.20
2023-03-29T21:43:25.704Z,13.30
2023-03-29T21:45:57.839Z,13.30
2023-03-29T21:48:29.303Z,13.20
2023-03-29T21:51:01.497Z,13.10
2023-03-29T21:53:33.301Z,13.00
2023-03-29T21:56:05.149Z,13.10
2023-03-29T21:58:36.620Z,13.10
2023-03-29T22:01:09.959Z,13.10
2023-03-29T22:03:41.627Z,13.20
2023-03-29T22:06:15.166Z,13.20
2023-03-29T22:08:48.874Z,13.30
2023-03-29T22:11:20.404Z,13.20
2023-03-29T22:13:54.276Z,13.30
2023-03-29T22:16:27.745Z,13.30
2023-03-29T22:18:59.467Z,13.30
2023-03-29T22:21:32.276Z,13.40
2023-03-29T22:24:03.885Z,13.40
2023-03-29T22:26:35.457Z,13.30
2023-03-29T22:29:07.293Z,13.20
2023-03-29T22:31:39.536Z,13.10
2023-03-29T22:34:11.485Z,13.10
2023-03-29T22:36:43.175Z,13.00
2023-03-29T22:39:14.677Z,12.90
2023-03-29T22:41:46.617Z,12.80
2023-03-29T22:44:18.165Z,12.90
2023-03-29T22:46:49.604Z,12.80
2023-03-29T22:49:21.098Z,12.80
2023-03-29T22:51:53.665Z,12.80
2023-03-29T22:54:25.124Z,12.90
2023-03-29T22:56:57.542Z,13.00
2023-03-29T22:59:29.528Z,13.00
2023-03-29T23:02:01.244Z,13.20
2023-03-29T23:04:33.561Z,13.40
2023-03-29T23:07:05.984Z,13.40
2023-03-29T23:09:38.188Z,13.60
2023-03-29T23:12:10.131Z,13.70
2023-03-29T23:14:46.218Z,13.80
2023-03-29T23:17:19.207Z,13.90
2023-03-29T23:19:51.641Z,14.00
2023-03-29T23:22:23.776Z,14.00
2023-03-29T23:24:57.447Z,14.00
2023-03-29T23:27:29.002Z,14.00
2023-03-29T23:30:01.764Z,14.00
2023-03-29T23:32:33.243Z,14.00
2023-03-29T23:35:05.140Z,14.00
2023-03-29T23:37:37.738Z,13.90
2023-03-29T23:40:11.658Z,13.90
2023-03-29T23:42:45.294Z,13.90
2023-03-29T23:45:18.736Z,13.80
2023-03-29T23:47:50.143Z,13.80
2023-03-29T23:50:22.481Z,13.80
2023-03-29T23:52:53.868Z,13.70
2023-03-29T23:55:25.334Z,13.70
2023-03-29T23:57:56.789Z,13.60
